Time;durP1;ratioP1;P1;durP2;ratioP2;P2;SDS_P1;SDS_P2;PMS_P1;PMS_P2;Temp;Humidity;BMP_temperature;BMP_pressure;BME280_temperature;BME280_humidity;BME280_pressure;Samples;Min_cycle;Max_cycle;Signal;HPM_P1;HPM_P2
2021/05/02 00:08:16;;;;;;;0.20;0.10;;;13.70;99.90;;;;;;20688961;28;20218;-80
2021/05/02 00:18:24;;;;;;;0.20;0.00;;;13.80;99.90;;;;;;20693343;28;20680;-81
2021/05/02 00:28:29;;;;;;;0.20;0.00;;;13.80;99.90;;;;;;20710409;28;20195;-80
2021/05/02 00:38:36;;;;;;;0.20;0.10;;;13.50;99.90;;;;;;20708444;28;20232;-77
2021/05/02 00:48:50;;;;;;;0.20;0.03;;;13.50;99.90;;;;;;20704076;28;20213;-74
2021/05/02 00:59:02;;;;;;;0.20;0.10;;;13.40;99.90;;;;;;20687547;28;20523;-75
2021/05/02 01:09:06;;;;;;;0.20;0.10;;;13.40;99.90;;;;;;20697921;28;20844;-74
2021/05/02 01:19:11;;;;;;;0.20;0.10;;;13.30;99.90;;;;;;20677020;28;20396;-72
2021/05/02 01:29:15;;;;;;;0.20;0.00;;;13.30;99.90;;;;;;20696789;28;20195;-74
2021/05/02 01:39:20;;;;;;;0.20;0.13;;;13.40;99.90;;;;;;20695492;28;20223;-75
2021/05/02 01:49:24;;;;;;;0.20;0.00;;;13.40;99.90;;;;;;20694803;28;20661;-75
2021/05/02 01:59:27;;;;;;;0.20;0.10;;;13.40;99.90;;;;;;20693158;28;20691;-74
2021/05/02 02:09:31;;;;;;;0.20;0.10;;;13.30;99.90;;;;;;20676312;28;20697;-76
2021/05/02 02:19:34;;;;;;;0.20;0.10;;;13.40;99.90;;;;;;20694880;28;20223;-75
2021/05/02 02:29:42;;;;;;;0.20;0.10;;;13.40;99.90;;;;;;20693176;28;20201;-73
2021/05/02 02:39:48;;;;;;;0.20;0.10;;;13.40;99.90;;;;;;20677961;28;20230;-75
2021/05/02 02:49:57;;;;;;;0.20;0.10;;;13.40;99.90;;;;;;20690984;28;20587;-77
2021/05/02 03:00:03;;;;;;;0.20;0.10;;;13.30;99.90;;;;;;20675831;28;20221;-75
2021/05/02 03:10:09;;;;;;;0.40;0.30;;;13.20;99.90;;;;;;20695643;28;20230;-74
2021/05/02 03:20:13;;;;;;;0.20;0.10;;;13.10;99.90;;;;;;20695328;28;20699;-78
2021/05/02 03:30:22;;;;;;;0.20;0.10;;;13.00;99.90;;;;;;20697506;28;20199;-76
2021/05/02 03:40:24;;;;;;;0.20;0.10;;;13.00;99.90;;;;;;20702948;28;20581;-76
2021/05/02 03:50:28;;;;;;;0.20;0.10;;;13.00;99.90;;;;;;20712328;28;20656;-75
2021/05/02 04:00:31;;;;;;;0.20;0.10;;;12.90;99.90;;;;;;20704055;28;20229;-74
2021/05/02 04:10:35;;;;;;;0.20;0.17;;;13.00;99.90;;;;;;20791546;28;20635;-73
2021/05/02 04:20:39;;;;;;;0.20;0.10;;;13.10;99.90;;;;;;20788704;28;20225;-74
2021/05/02 04:30:42;;;;;;;0.20;0.20;;;13.10;99.90;;;;;;20790463;28;20309;-73
2021/05/02 04:40:45;;;;;;;0.20;0.10;;;13.20;99.90;;;;;;20786363;28;20598;-74
2021/05/02 04:50:48;;;;;;;0.20;0.10;;;13.20;99.90;;;;;;20786136;28;20661;-73
2021/05/02 05:00:51;;;;;;;0.20;0.20;;;13.10;99.90;;;;;;20768987;28;20230;-77
2021/05/02 05:10:55;;;;;;;0.20;0.10;;;12.90;99.90;;;;;;20686870;28;20246;-76
2021/05/02 05:20:59;;;;;;;0.20;0.10;;;13.00;99.90;;;;;;20686048;28;20226;-75
2021/05/02 05:31:03;;;;;;;0.20;0.20;;;13.20;99.90;;;;;;20686015;28;20199;-74
2021/05/02 05:41:06;;;;;;;0.20;0.10;;;13.50;99.90;;;;;;20702741;28;20253;-75
2021/05/02 05:51:10;;;;;;;0.20;0.10;;;13.60;99.90;;;;;;20704602;28;20202;-75
2021/05/02 06:01:13;;;;;;;0.20;0.10;;;13.80;99.90;;;;;;20716955;28;20749;-73
2021/05/02 06:11:16;;;;;;;0.30;0.20;;;14.10;99.90;;;;;;20782641;28;20230;-74
2021/05/02 06:21:19;;;;;;;0.20;0.10;;;14.30;99.90;;;;;;20761914;28;20741;-75
2021/05/02 06:31:22;;;;;;;0.20;0.20;;;14.20;99.90;;;;;;20778218;28;20616;-76
2021/05/02 06:41:25;;;;;;;0.20;0.00;;;14.40;99.90;;;;;;20759280;28;20560;-76
2021/05/02 06:51:29;;;;;;;0.40;0.40;;;14.30;99.90;;;;;;20760069;28;20264;-74
2021/05/02 07:01:32;;;;;;;0.20;0.10;;;14.30;99.90;;;;;;20754689;28;20218;-75
2021/05/02 07:11:36;;;;;;;0.20;0.10;;;14.30;99.90;;;;;;20693240;28;20230;-73
2021/05/02 07:21:39;;;;;;;0.40;0.27;;;14.50;99.90;;;;;;20712519;28;20671;-74
2021/05/02 07:31:45;;;;;;;0.20;0.10;;;14.70;99.90;;;;;;20710405;28;20326;-76
2021/05/02 07:41:48;;;;;;;0.20;0.00;;;14.80;99.90;;;;;;20726659;28;20278;-74
2021/05/02 07:51:51;;;;;;;0.20;0.20;;;14.90;99.90;;;;;;20732769;28;20477;-73
2021/05/02 08:01:54;;;;;;;0.20;0.10;;;15.30;99.90;;;;;;20734361;28;20250;-75
2021/05/02 08:11:59;;;;;;;0.20;0.10;;;15.80;99.90;;;;;;20791431;28;20527;-74
2021/05/02 08:22:03;;;;;;;0.20;0.10;;;15.90;99.90;;;;;;20788698;28;20293;-76
2021/05/02 08:32:15;;;;;;;1.90;0.83;;;16.10;99.90;;;;;;20757026;28;20202;-78
2021/05/02 08:42:18;;;;;;;0.20;0.10;;;16.20;99.90;;;;;;20679365;28;20376;-73
2021/05/02 08:52:21;;;;;;;0.27;0.20;;;17.10;99.90;;;;;;20664216;28;20660;-73
2021/05/02 09:02:26;;;;;;;0.50;0.50;;;17.40;99.90;;;;;;20652550;28;20312;-76
2021/05/02 09:12:31;;;;;;;0.60;0.40;;;18.10;99.90;;;;;;20699070;28;20249;-74
2021/05/02 09:22:34;;;;;;;0.20;0.00;;;17.90;99.90;;;;;;20684195;28;20292;-72
2021/05/02 09:32:44;;;;;;;0.20;0.10;;;17.50;99.90;;;;;;20697940;28;20249;-75
2021/05/02 09:42:49;;;;;;;0.50;0.50;;;16.80;99.90;;;;;;20701596;28;20629;-74
2021/05/02 09:52:56;;;;;;;3.60;0.67;;;17.10;99.90;;;;;;20694360;28;20219;-76
2021/05/02 10:03:07;;;;;;;0.20;0.10;;;17.20;99.90;;;;;;20666465;28;20195;-73
2021/05/02 10:13:13;;;;;;;0.70;0.30;;;17.30;99.90;;;;;;20695666;28;20236;-72
2021/05/02 10:23:17;;;;;;;0.33;0.33;;;17.00;99.90;;;;;;20643338;23;20372;-75
2021/05/02 10:33:33;;;;;;;0.20;0.10;;;17.10;99.90;;;;;;20701837;23;21815;-72
2021/05/02 10:43:38;;;;;;;0.20;0.10;;;17.00;99.90;;;;;;20697475;28;20559;-73
2021/05/02 10:54:04;;;;;;;0.20;0.10;;;16.70;99.90;;;;;;20699683;28;20219;-74
2021/05/02 11:04:10;;;;;;;0.20;0.20;;;16.30;99.90;;;;;;20682133;28;20257;-73
2021/05/02 11:14:54;;;;;;;0.20;0.10;;;15.80;99.90;;;;;;20705306;28;20670;-75
2021/05/02 11:35:55;;;;;;;0.20;0.10;;;16.10;99.90;;;;;;20355333;29;20225;-74
2021/05/02 11:46:28;;;;;;;0.57;0.47;;;15.90;99.90;;;;;;20372711;28;20305;-75
2021/05/02 11:56:54;;;;;;;0.33;0.33;;;16.50;99.90;;;;;;20651282;23;20565;-73
2021/05/02 12:07:00;;;;;;;0.20;0.10;;;16.70;99.90;;;;;;20710142;28;20206;-76
2021/05/02 12:17:03;;;;;;;0.20;0.13;;;16.30;99.90;;;;;;20709020;28;20330;-78
2021/05/02 12:27:10;;;;;;;0.23;0.20;;;16.10;99.90;;;;;;20707407;28;20562;-70
2021/05/02 12:37:17;;;;;;;0.40;0.17;;;15.90;99.90;;;;;;20708877;28;20230;-76
2021/05/02 12:47:23;;;;;;;0.20;0.20;;;16.20;99.90;;;;;;20727742;28;20541;-74
2021/05/02 12:57:27;;;;;;;0.20;0.20;;;16.30;99.90;;;;;;20710643;28;20243;-73
2021/05/02 13:07:35;;;;;;;0.30;0.30;;;18.80;99.90;;;;;;20685896;28;20551;-73
2021/05/02 13:17:38;;;;;;;4.43;0.93;;;20.50;99.90;;;;;;20699786;28;20221;-74
2021/05/02 13:27:45;;;;;;;0.57;0.17;;;21.00;99.90;;;;;;20702073;28;20195;-74
2021/05/02 13:37:47;;;;;;;0.20;0.10;;;21.80;99.90;;;;;;20703041;28;20226;-75
2021/05/02 13:47:54;;;;;;;0.20;0.10;;;21.00;99.90;;;;;;20700964;28;20601;-74
2021/05/02 13:57:57;;;;;;;3.93;1.50;;;22.40;99.90;;;;;;20698372;28;20233;-72
2021/05/02 14:08:03;;;;;;;1.90;0.23;;;22.30;99.90;;;;;;20701213;28;20663;-76
2021/05/02 14:18:06;;;;;;;0.30;0.20;;;22.60;99.90;;;;;;20698863;28;20285;-77
2021/05/02 14:28:11;;;;;;;1.80;0.40;;;22.60;99.90;;;;;;20702692;28;20813;-76
2021/05/02 14:38:14;;;;;;;0.20;0.20;;;23.00;99.90;;;;;;20696853;28;20257;-74
2021/05/02 14:48:18;;;;;;;0.20;0.10;;;23.60;99.90;;;;;;20699553;28;20672;-73
2021/05/02 14:58:20;;;;;;;0.63;0.63;;;23.20;99.90;;;;;;20697582;28;20222;-72
2021/05/02 15:08:24;;;;;;;0.20;0.08;;;24.40;99.90;;;;;;20696909;28;20197;-74
2021/05/02 15:18:27;;;;;;;0.30;0.30;;;24.00;99.90;;;;;;20690331;28;20238;-71
2021/05/02 15:28:31;;;;;;;0.87;0.50;;;23.40;99.90;;;;;;20692888;28;21096;-73
2021/05/02 15:38:38;;;;;;;0.30;0.20;;;22.80;99.90;;;;;;20684850;28;20211;-74
2021/05/02 15:48:42;;;;;;;0.20;0.10;;;23.00;99.90;;;;;;20710569;28;20202;-76
2021/05/02 15:58:45;;;;;;;0.20;0.20;;;20.40;99.90;;;;;;20690772;28;20231;-73
2021/05/02 16:08:50;;;;;;;0.70;0.60;;;21.00;99.90;;;;;;20706735;28;20281;-72
2021/05/02 16:18:55;;;;;;;0.20;0.17;;;19.40;99.90;;;;;;20705089;28;20703;-73
2021/05/02 16:28:59;;;;;;;0.20;0.10;;;18.30;99.90;;;;;;20711113;28;20195;-73
2021/05/02 16:39:02;;;;;;;0.20;0.20;;;18.50;99.90;;;;;;20697250;28;20361;-76
2021/05/02 16:49:06;;;;;;;0.20;0.20;;;18.00;99.90;;;;;;20693291;28;20194;-73
2021/05/02 16:59:10;;;;;;;1.08;0.38;;;17.80;99.90;;;;;;20628564;28;20450;-73
2021/05/02 17:09:17;;;;;;;1.17;0.37;;;18.30;99.90;;;;;;20706209;28;20869;-75
2021/05/02 17:19:19;;;;;;;1.97;0.50;;;20.00;99.90;;;;;;20685293;28;20396;-74
2021/05/02 17:29:25;;;;;;;0.40;0.40;;;20.80;99.90;;;;;;20701527;28;20804;-74
2021/05/02 17:39:43;;;;;;;0.27;0.23;;;20.70;99.90;;;;;;20703486;28;20229;-77
2021/05/02 17:49:47;;;;;;;0.53;0.40;;;20.90;99.90;;;;;;20707694;28;20246;-75
2021/05/02 17:59:52;;;;;;;0.30;0.30;;;20.30;99.90;;;;;;20720612;28;20488;-73
2021/05/02 18:09:58;;;;;;;0.30;0.30;;;17.80;99.90;;;;;;20704782;28;20202;-75
2021/05/02 18:20:02;;;;;;;0.60;0.50;;;16.60;99.90;;;;;;20702445;28;20254;-73
2021/05/02 18:30:09;;;;;;;0.33;0.30;;;16.00;99.90;;;;;;20706094;28;20206;-76
2021/05/02 18:40:14;;;;;;;0.20;0.20;;;15.90;99.90;;;;;;20716453;28;20300;-76
2021/05/02 18:50:18;;;;;;;0.20;0.10;;;15.60;99.90;;;;;;20717404;28;20236;-75
2021/05/02 19:00:44;;;;;;;1.57;0.50;;;15.40;99.90;;;;;;20702132;28;20264;-77
2021/05/02 19:10:48;;;;;;;0.67;0.50;;;15.30;99.90;;;;;;20707441;28;20222;-77
2021/05/02 19:20:51;;;;;;;0.70;0.70;;;15.00;99.90;;;;;;20765738;23;20252;-77
2021/05/02 19:30:55;;;;;;;0.93;0.80;;;14.80;99.90;;;;;;20698587;28;20266;-74
2021/05/02 19:41:09;;;;;;;0.40;0.40;;;14.00;99.90;;;;;;20724401;28;20222;-77
2021/05/02 19:51:22;;;;;;;0.30;0.27;;;13.50;99.90;;;;;;20699784;28;20683;-77
2021/05/02 20:01:26;;;;;;;0.50;0.50;;;13.30;99.90;;;;;;20742799;28;20252;-73
2021/05/02 20:11:32;;;;;;;0.30;0.30;;;13.20;99.90;;;;;;20736258;23;20258;-84
2021/05/02 20:21:36;;;;;;;1.13;0.37;;;13.00;99.90;;;;;;20535723;28;20227;-75
2021/05/02 20:31:40;;;;;;;0.50;0.30;;;12.80;99.90;;;;;;20544018;28;20239;-77
2021/05/02 20:41:45;;;;;;;1.33;0.70;;;12.40;99.90;;;;;;20548355;28;20267;-77
2021/05/02 20:51:49;;;;;;;1.40;0.37;;;12.40;99.90;;;;;;20547093;28;20196;-81
2021/05/02 21:01:51;;;;;;;0.40;0.40;;;12.20;99.90;;;;;;20550052;28;20936;-77
2021/05/02 21:11:55;;;;;;;0.70;0.70;;;12.10;99.90;;;;;;20547398;28;20234;-78
2021/05/02 21:21:59;;;;;;;0.20;0.20;;;11.90;99.90;;;;;;20617706;28;20525;-76
2021/05/02 21:32:03;;;;;;;1.00;0.87;;;12.00;99.90;;;;;;20540595;28;20616;-76
2021/05/02 21:42:06;;;;;;;0.80;0.70;;;11.90;99.90;;;;;;20542246;28;20275;-76
2021/05/02 21:52:13;;;;;;;3.73;0.70;;;11.70;99.90;;;;;;20522893;28;20215;-76
2021/05/02 22:02:16;;;;;;;0.60;0.60;;;11.90;99.90;;;;;;20548003;28;20273;-77
2021/05/02 22:12:20;;;;;;;0.30;0.20;;;11.90;99.90;;;;;;20616253;28;20223;-75
2021/05/02 22:22:22;;;;;;;0.40;0.30;;;11.70;99.90;;;;;;20587434;28;20228;-75
2021/05/02 22:32:27;;;;;;;0.30;0.30;;;11.80;99.90;;;;;;20537420;28;20228;-76
2021/05/02 22:42:30;;;;;;;0.20;0.20;;;11.70;99.90;;;;;;20537796;28;20239;-75
2021/05/02 22:52:33;;;;;;;0.53;0.53;;;11.50;99.90;;;;;;20605896;28;20211;-74
2021/05/02 23:02:37;;;;;;;2.30;1.80;;;11.40;99.90;;;;;;20590684;28;20325;-76
2021/05/02 23:12:41;;;;;;;0.20;0.20;;;11.40;99.90;;;;;;20617898;28;20234;-76
2021/05/02 23:22:44;;;;;;;2.90;0.53;;;11.20;99.90;;;;;;20616549;28;20568;-78
2021/05/02 23:32:49;;;;;;;2.33;0.63;;;11.30;99.90;;;;;;20615626;28;20200;-76
2021/05/02 23:42:53;;;;;;;0.30;0.30;;;11.40;99.90;;;;;;20589156;28;20251;-75
2021/05/02 23:52:56;;;;;;;1.23;0.67;;;11.50;99.90;;;;;;20534342;28;20260;-80
